createdAt,value
2019-04-30T00:00:45.459Z,92977.49
2019-04-30T00:03:19.703Z,92975.32
2019-04-30T00:05:53.836Z,92988.75
2019-04-30T00:08:23.304Z,93035.11
2019-04-30T00:10:53.104Z,93009.73
2019-04-30T00:13:22.963Z,93007.80
2019-04-30T00:15:57.273Z,92951.37
2019-04-30T00:18:25.464Z,93002.49
2019-04-30T00:20:55.508Z,92983.03
2019-04-30T00:23:30.706Z,92912.52
2019-04-30T00:26:06.228Z,92895.42
2019-04-30T00:28:32.916Z,92906.70
2019-04-30T00:31:02.592Z,92875.91
2019-04-30T00:33:32.325Z,92893.12
2019-04-30T00:36:04.965Z,92871.27
2019-04-30T00:38:37.862Z,92890.33
2019-04-30T00:41:10.149Z,92884.36
2019-04-30T00:43:46.546Z,92889.44
2019-04-30T00:46:17.329Z,92888.23
2019-04-30T00:48:48.196Z,92876.66
2019-04-30T00:51:21.103Z,92937.14
2019-04-30T00:53:51.336Z,92896.38
2019-04-30T00:56:24.663Z,92885.94
2019-04-30T00:58:57.711Z,92853.01
2019-04-30T01:01:48.176Z,92846.74
2019-04-30T01:04:26.641Z,92885.11
2019-04-30T01:06:52.878Z,92926.45
2019-04-30T01:09:23.268Z,92876.42
2019-04-30T01:11:52.967Z,92860.83
2019-04-30T01:14:23.250Z,92876.61
2019-04-30T01:16:56.004Z,92911.74
2019-04-30T01:19:29.889Z,92885.91
2019-04-30T01:21:59.454Z,92947.22
2019-04-30T01:24:31.597Z,92968.38
2019-04-30T01:27:06.864Z,92915.92
2019-04-30T01:29:40.857Z,92950.97
2019-04-30T01:32:12.280Z,92952.56
2019-04-30T01:34:39.525Z,92920.76
2019-04-30T01:37:11.697Z,92891.75
2019-04-30T01:39:43.864Z,92897.14
2019-04-30T01:42:13.631Z,92873.53
2019-04-30T01:44:50.477Z,92863.35
2019-04-30T01:47:21.543Z,92978.34
2019-04-30T01:49:50.453Z,92919.52
2019-04-30T01:52:20.125Z,92872.48
2019-04-30T01:54:50.872Z,92835.40
2019-04-30T01:57:22.135Z,92835.97
2019-04-30T02:00:10.470Z,92843.96
2019-04-30T02:02:42.796Z,92943.06
2019-04-30T02:05:12.628Z,92935.95
2019-04-30T02:07:46.064Z,92894.74
2019-04-30T02:10:18.616Z,92854.72
2019-04-30T02:12:49.318Z,92814.65
2019-04-30T02:15:19.405Z,92796.09
2019-04-30T02:17:50.454Z,92768.64
2019-04-30T02:20:20.645Z,92857.64
2019-04-30T02:22:51.528Z,92880.51
2019-04-30T02:25:23.724Z,92886.86
2019-04-30T02:27:54.346Z,92848.27
2019-04-30T02:30:24.144Z,92848.53
2019-04-30T02:32:54.542Z,92838.23
2019-04-30T02:35:40.889Z,92879.45
2019-04-30T02:38:21.844Z,92813.77
2019-04-30T02:40:51.680Z,92828.74
2019-04-30T02:43:23.086Z,92811.94
2019-04-30T02:45:55.488Z,92751.58
2019-04-30T02:48:29.237Z,92755.59
2019-04-30T02:51:00.534Z,92716.19
2019-04-30T02:53:50.980Z,92670.05
2019-04-30T02:56:26.263Z,92632.92
2019-04-30T02:58:54.592Z,92701.22
2019-04-30T03:01:24.501Z,92670.78
2019-04-30T03:03:59.842Z,92645.56
2019-04-30T03:06:30.380Z,92576.63
2019-04-30T03:09:01.306Z,92556.24
2019-04-30T03:11:31.821Z,92526.76
2019-04-30T03:14:02.799Z,92547.58
2019-04-30T03:16:36.532Z,92520.52
2019-04-30T03:19:09.916Z,92521.83
2019-04-30T03:21:54.127Z,92543.95
2019-04-30T03:24:23.848Z,92525.03
2019-04-30T03:26:53.516Z,92497.22
2019-04-30T03:29:24.113Z,92537.64
2019-04-30T03:31:55.245Z,92514.20
2019-04-30T03:34:32.455Z,92498.77
2019-04-30T03:37:02.270Z,92493.86
2019-04-30T03:39:34.350Z,92490.14
2019-04-30T03:42:05.103Z,92489.53
2019-04-30T03:44:34.833Z,92482.49
2019-04-30T03:47:04.475Z,92478.52
2019-04-30T03:49:35.982Z,92492.64
2019-04-30T03:52:06.163Z,92488.62
2019-04-30T03:54:35.915Z,92469.12
2019-04-30T03:57:06.416Z,92490.64
2019-04-30T03:59:36.186Z,92515.27
2019-04-30T04:02:12.234Z,92523.22
2019-04-30T04:04:41.157Z,92551.27
2019-04-30T04:07:21.495Z,92615.08
2019-04-30T04:09:55.795Z,92614.26
2019-04-30T04:12:30.026Z,92648.37
2019-04-30T04:15:03.349Z,92636.34
2019-04-30T04:17:32.348Z,92642.14
2019-04-30T04:20:03.669Z,92654.66
2019-04-30T04:22:33.363Z,92671.19
2019-04-30T04:25:03.169Z,92674.79
2019-04-30T04:27:33.595Z,92695.84
2019-04-30T04:30:03.936Z,92698.23
2019-04-30T04:32:33.725Z,92752.25
2019-04-30T04:35:06.173Z,92814.79
2019-04-30T04:37:35.949Z,92818.91
2019-04-30T04:40:09.494Z,92841.83
2019-04-30T04:42:39.704Z,92922.41
2019-04-30T04:45:10.113Z,92941.14
2019-04-30T04:47:40.407Z,93019.42
2019-04-30T04:50:11.355Z,93046.84
2019-04-30T04:52:42.521Z,93040.75
2019-04-30T04:55:14.663Z,93086.12
2019-04-30T04:57:46.902Z,93075.25
2019-04-30T05:00:19.458Z,93117.87
2019-04-30T05:02:53.631Z,93117.95
2019-04-30T05:05:23.381Z,93126.29
2019-04-30T05:07:53.130Z,93125.72
2019-04-30T05:10:22.854Z,93153.80
2019-04-30T05:12:52.563Z,93135.38
2019-04-30T05:15:22.231Z,93164.87
2019-04-30T05:17:52.358Z,93169.49
2019-04-30T05:20:23.650Z,93160.30
2019-04-30T05:22:53.632Z,93157.80
2019-04-30T05:25:23.346Z,93161.12
2019-04-30T05:27:53.062Z,93145.77
2019-04-30T05:30:22.715Z,93155.09
2019-04-30T05:32:52.456Z,93145.88
2019-04-30T05:35:22.169Z,93170.30
2019-04-30T05:37:51.981Z,93154.19
2019-04-30T05:40:23.722Z,93145.97
2019-04-30T05:42:53.575Z,93149.94
2019-04-30T05:45:25.199Z,93138.33
2019-04-30T05:47:58.763Z,93142.95
2019-04-30T05:50:29.804Z,93139.73
2019-04-30T05:53:02.053Z,93110.02
2019-04-30T05:55:32.236Z,93107.70
2019-04-30T05:58:02.115Z,93127.02
2019-04-30T06:00:31.822Z,93103.64
2019-04-30T06:03:04.873Z,93115.19
2019-04-30T06:05:34.561Z,93137.97
2019-04-30T06:08:04.484Z,93154.97
2019-04-30T06:10:41.516Z,93145.06
2019-04-30T06:13:19.020Z,93133.95
2019-04-30T06:15:58.835Z,93142.91
2019-04-30T06:18:29.572Z,93147.58
2019-04-30T06:21:00.255Z,93168.41
2019-04-30T06:23:30.003Z,93158.14
2019-04-30T06:26:09.416Z,93141.27
2019-04-30T06:28:33.941Z,93154.58
2019-04-30T06:31:04.646Z,93160.00
2019-04-30T06:33:34.397Z,93138.63
2019-04-30T06:36:04.213Z,93090.66
2019-04-30T06:38:34.046Z,93079.09
2019-04-30T06:41:04.180Z,93149.20
2019-04-30T06:43:39.641Z,93161.42
2019-04-30T06:46:09.325Z,93159.23
2019-04-30T06:48:41.908Z,93161.16
2019-04-30T06:51:11.874Z,93156.69
2019-04-30T06:53:41.991Z,93161.14
2019-04-30T06:56:12.638Z,93192.92
2019-04-30T06:58:42.593Z,93198.94
2019-04-30T07:01:12.918Z,93223.92
2019-04-30T07:03:45.646Z,93225.95
2019-04-30T07:06:26.902Z,93156.61
2019-04-30T07:09:08.846Z,93215.95
2019-04-30T07:11:49.389Z,93227.16
2019-04-30T07:14:19.994Z,93251.06
2019-04-30T07:16:54.033Z,93246.96
2019-04-30T07:19:32.885Z,93242.20
2019-04-30T07:21:54.930Z,93233.47
2019-04-30T07:24:24.623Z,93216.10
2019-04-30T07:26:54.617Z,93247.93
2019-04-30T07:29:25.987Z,93259.34
2019-04-30T07:31:55.720Z,93248.23
2019-04-30T07:34:25.937Z,93260.16
2019-04-30T07:37:13.400Z,93261.15
2019-04-30T07:39:33.358Z,93264.72
2019-04-30T07:42:02.294Z,93286.30
2019-04-30T07:44:36.590Z,93262.87
2019-04-30T07:47:05.796Z,93253.30
2019-04-30T07:49:51.543Z,93255.86
2019-04-30T07:52:12.329Z,93272.77
2019-04-30T07:54:46.241Z,93276.95
2019-04-30T07:57:15.997Z,93279.34
2019-04-30T07:59:45.716Z,93280.80
2019-04-30T08:02:15.521Z,93273.38
2019-04-30T08:04:53.876Z,93246.34
2019-04-30T08:07:25.474Z,93228.34
2019-04-30T08:09:58.862Z,93181.06
2019-04-30T08:12:33.447Z,93203.75
2019-04-30T08:15:00.837Z,93215.61
2019-04-30T08:17:31.266Z,93228.83
2019-04-30T08:20:01.370Z,93222.56
2019-04-30T08:22:33.283Z,93233.09
2019-04-30T08:25:03.437Z,93251.84
2019-04-30T08:27:34.254Z,93282.94
2019-04-30T08:30:04.157Z,93275.77
2019-04-30T08:32:34.797Z,93275.58
2019-04-30T08:35:06.494Z,93297.62
2019-04-30T08:37:36.225Z,93301.78
2019-04-30T08:40:08.655Z,93294.83
2019-04-30T08:42:40.483Z,93273.68
2019-04-30T08:45:12.891Z,93308.17
2019-04-30T08:47:42.667Z,93322.48
2019-04-30T08:50:12.666Z,93322.28
2019-04-30T08:52:43.239Z,93327.47
2019-04-30T08:55:17.118Z,93328.40
2019-04-30T08:57:50.841Z,93331.98
2019-04-30T09:00:20.752Z,93332.45
2019-04-30T09:02:50.544Z,93342.94
2019-04-30T09:05:30.461Z,93357.52
2019-04-30T09:07:59.938Z,93344.04
2019-04-30T09:10:29.630Z,93349.27
2019-04-30T09:13:01.386Z,93351.45
2019-04-30T09:15:31.053Z,93351.61
2019-04-30T09:18:12.233Z,93342.41
2019-04-30T09:20:33.124Z,93352.83
2019-04-30T09:23:03.314Z,93343.67
2019-04-30T09:25:33.524Z,93360.88
2019-04-30T09:28:04.512Z,93367.11
2019-04-30T09:30:36.253Z,93359.67
2019-04-30T09:33:10.900Z,93372.77
2019-04-30T09:35:39.968Z,93369.19
2019-04-30T09:38:10.380Z,93361.33
2019-04-30T09:40:41.791Z,93369.66
2019-04-30T09:43:11.666Z,93376.75
2019-04-30T09:45:42.404Z,93368.28
2019-04-30T09:48:15.084Z,93366.41
2019-04-30T09:50:45.518Z,93368.89
2019-04-30T09:53:15.815Z,93386.34
2019-04-30T09:55:45.631Z,93379.48
2019-04-30T09:58:18.199Z,93369.23
2019-04-30T10:00:48.512Z,93376.55
2019-04-30T10:03:20.085Z,93367.77
2019-04-30T10:05:49.736Z,93392.58
2019-04-30T10:08:20.977Z,93390.11
2019-04-30T10:10:54.892Z,93394.29
2019-04-30T10:13:24.590Z,93387.36
2019-04-30T10:15:58.665Z,93377.72
2019-04-30T10:18:28.401Z,93370.27
2019-04-30T10:21:00.822Z,93363.69
2019-04-30T10:23:30.616Z,93366.12
2019-04-30T10:26:00.715Z,93372.75
2019-04-30T10:28:30.411Z,93366.35
2019-04-30T10:31:00.232Z,93346.38
2019-04-30T10:33:30.880Z,93360.66
2019-04-30T10:36:00.651Z,93365.62
2019-04-30T10:38:30.349Z,93368.28
2019-04-30T10:41:00.046Z,93366.28
2019-04-30T10:43:32.004Z,93367.11
2019-04-30T10:46:01.269Z,93372.86
2019-04-30T10:48:31.041Z,93351.63
2019-04-30T10:51:00.736Z,93304.30
2019-04-30T10:53:31.379Z,93334.63
2019-04-30T10:56:01.153Z,93361.93
2019-04-30T10:58:31.601Z,93366.58
2019-04-30T11:01:02.296Z,93377.39
2019-04-30T11:03:32.373Z,93378.53
2019-04-30T11:06:02.072Z,93357.06
2019-04-30T11:08:32.624Z,93322.25
2019-04-30T11:11:02.369Z,93349.08
2019-04-30T11:13:32.215Z,93357.02
2019-04-30T11:16:12.057Z,93364.26
2019-04-30T11:18:38.750Z,93359.70
2019-04-30T11:21:10.210Z,93363.84
2019-04-30T11:23:40.583Z,93362.13
2019-04-30T11:26:10.875Z,93357.86
2019-04-30T11:28:41.079Z,93343.38
2019-04-30T11:31:24.790Z,93352.69
2019-04-30T11:34:00.883Z,93320.21
2019-04-30T11:36:31.041Z,93296.13
2019-04-30T11:39:00.757Z,93313.34
2019-04-30T11:41:33.324Z,93309.89
2019-04-30T11:44:04.056Z,93295.98
2019-04-30T11:46:38.420Z,93294.75
2019-04-30T11:49:09.670Z,93259.69
2019-04-30T11:51:40.313Z,93253.30
2019-04-30T11:54:11.032Z,93242.67
2019-04-30T11:56:40.839Z,93266.66
2019-04-30T11:59:10.666Z,93287.41
2019-04-30T12:01:40.516Z,93327.66
2019-04-30T12:04:10.238Z,93344.85
2019-04-30T12:06:41.459Z,93333.15
2019-04-30T12:09:12.916Z,93330.28
2019-04-30T12:11:44.843Z,93338.41
2019-04-30T12:14:15.510Z,93323.27
2019-04-30T12:16:45.363Z,93343.66
2019-04-30T12:19:18.912Z,93321.32
2019-04-30T12:21:48.524Z,93303.45
2019-04-30T12:24:19.974Z,93288.58
2019-04-30T12:26:49.797Z,93280.77
2019-04-30T12:29:19.972Z,93254.42
2019-04-30T12:31:51.370Z,93242.71
2019-04-30T12:34:24.994Z,93246.60
2019-04-30T12:36:54.599Z,93239.69
2019-04-30T12:39:25.947Z,93250.97
2019-04-30T12:41:59.852Z,93278.66
2019-04-30T12:44:32.103Z,93272.97
2019-04-30T12:47:03.960Z,93279.60
2019-04-30T12:49:55.507Z,93256.76
2019-04-30T12:52:34.072Z,93243.13
2019-04-30T12:55:15.147Z,93239.66
2019-04-30T12:57:42.485Z,93234.66
2019-04-30T13:00:13.733Z,93251.00
2019-04-30T13:02:43.492Z,93256.01
2019-04-30T13:05:13.187Z,93252.14
2019-04-30T13:07:46.224Z,93270.35
2019-04-30T13:10:17.246Z,93265.99
2019-04-30T13:12:48.095Z,93276.44
2019-04-30T13:15:19.764Z,93281.00
2019-04-30T13:17:52.504Z,93282.88
2019-04-30T13:20:26.736Z,93302.22
2019-04-30T13:23:01.235Z,93280.48
2019-04-30T13:25:35.466Z,93278.30
2019-04-30T13:28:07.764Z,93291.04
2019-04-30T13:30:39.692Z,93287.45
2019-04-30T13:33:28.885Z,93271.64
2019-04-30T13:36:03.578Z,93257.61
2019-04-30T13:38:51.729Z,93236.39
2019-04-30T13:41:22.203Z,93226.93
2019-04-30T13:43:58.614Z,93221.08
2019-04-30T13:46:28.947Z,93201.73
2019-04-30T13:49:02.642Z,93198.50
2019-04-30T13:51:34.126Z,93218.53
2019-04-30T13:54:03.759Z,93228.34
2019-04-30T13:56:34.448Z,93204.91
2019-04-30T13:59:04.311Z,93220.32
2019-04-30T14:01:34.805Z,93236.23
2019-04-30T14:04:06.242Z,93249.45
2019-04-30T14:06:55.518Z,93269.79
2019-04-30T14:09:32.385Z,93294.84
2019-04-30T14:12:02.063Z,93289.64
2019-04-30T14:14:33.414Z,93292.23
2019-04-30T14:17:05.412Z,93295.30
2019-04-30T14:19:36.168Z,93303.38
2019-04-30T14:22:08.825Z,93309.05
2019-04-30T14:24:38.310Z,93303.66
2019-04-30T14:27:08.985Z,93304.61
2019-04-30T14:29:39.537Z,93291.75
2019-04-30T14:32:13.286Z,93288.88
2019-04-30T14:34:43.106Z,93278.73
2019-04-30T14:37:14.320Z,93289.62
2019-04-30T14:39:44.207Z,93282.70
2019-04-30T14:42:14.818Z,93284.91
2019-04-30T14:44:50.118Z,93300.80
2019-04-30T14:47:34.412Z,93292.41
2019-04-30T14:50:11.158Z,93306.53
2019-04-30T14:52:42.460Z,93303.36
2019-04-30T14:55:21.260Z,93309.59
2019-04-30T14:57:52.588Z,93292.46
2019-04-30T15:00:42.041Z,93282.89
2019-04-30T15:03:13.343Z,93296.02
2019-04-30T15:05:48.638Z,93284.70
2019-04-30T15:08:14.523Z,93290.11
2019-04-30T15:10:44.345Z,93268.30
2019-04-30T15:13:14.124Z,93260.73
2019-04-30T15:15:43.865Z,93271.72
2019-04-30T15:18:13.627Z,93261.41
2019-04-30T15:20:43.376Z,93262.48
2019-04-30T15:23:34.501Z,93264.95
2019-04-30T15:26:04.577Z,93263.67
2019-04-30T15:28:35.765Z,93271.69
2019-04-30T15:31:09.270Z,93276.77
2019-04-30T15:33:41.124Z,93280.92
2019-04-30T15:36:10.823Z,93275.16
2019-04-30T15:38:57.101Z,93278.25
2019-04-30T15:41:26.808Z,93273.00
2019-04-30T15:43:56.537Z,93277.45
2019-04-30T15:46:26.988Z,93267.87
2019-04-30T15:48:59.071Z,93261.50
2019-04-30T15:51:29.142Z,93278.81
2019-04-30T15:53:59.049Z,93283.64
2019-04-30T15:56:35.225Z,93275.26
2019-04-30T15:59:09.682Z,93264.71
2019-04-30T16:01:42.307Z,93261.66
2019-04-30T16:04:13.462Z,93257.77
2019-04-30T16:06:43.787Z,93259.12
2019-04-30T16:09:15.151Z,93271.37
2019-04-30T16:11:54.979Z,93274.56
2019-04-30T16:14:26.132Z,93266.64
2019-04-30T16:17:08.186Z,93264.88
2019-04-30T16:19:41.461Z,93265.87
2019-04-30T16:22:13.787Z,93268.41
2019-04-30T16:24:49.596Z,93272.42
2019-04-30T16:27:20.212Z,93270.46
2019-04-30T16:29:50.844Z,93270.08
2019-04-30T16:32:21.922Z,93265.58
2019-04-30T16:34:54.716Z,93281.42
2019-04-30T16:37:26.144Z,93194.31
2019-04-30T16:39:55.750Z,93274.41
2019-04-30T16:42:25.511Z,93268.87
2019-04-30T16:44:55.282Z,93266.23
2019-04-30T16:47:25.014Z,93265.64
2019-04-30T16:49:58.774Z,93265.48
2019-04-30T16:52:29.719Z,93264.95
2019-04-30T16:54:59.293Z,93266.30
2019-04-30T16:57:31.134Z,93259.88
2019-04-30T17:00:00.864Z,93263.20
2019-04-30T17:02:32.857Z,93253.88
2019-04-30T17:05:04.159Z,93253.13
2019-04-30T17:07:44.499Z,93233.34
2019-04-30T17:10:15.850Z,93239.23
2019-04-30T17:12:51.515Z,93219.73
2019-04-30T17:15:22.990Z,93198.66
2019-04-30T17:17:58.291Z,93198.08
2019-04-30T17:20:28.786Z,93184.28
2019-04-30T17:22:59.507Z,93200.30
2019-04-30T17:25:29.639Z,93199.97
2019-04-30T17:28:01.498Z,93207.19
2019-04-30T17:30:31.052Z,93207.98
2019-04-30T17:33:00.870Z,93194.51
2019-04-30T17:35:30.728Z,93180.61
2019-04-30T17:38:00.559Z,93155.93
2019-04-30T17:40:30.388Z,93175.73
2019-04-30T17:43:01.243Z,93174.34
2019-04-30T17:45:31.340Z,93148.87
2019-04-30T17:48:01.142Z,93134.97
2019-04-30T17:50:31.022Z,93109.30
2019-04-30T17:53:01.089Z,93101.30
2019-04-30T17:55:31.867Z,92873.00
2019-04-30T17:58:02.076Z,93252.97
2019-04-30T18:00:33.442Z,93253.66
2019-04-30T18:03:03.485Z,93217.22
2019-04-30T18:05:34.222Z,93182.70
2019-04-30T18:08:03.968Z,93157.53
2019-04-30T18:10:34.539Z,93151.64
2019-04-30T18:13:04.839Z,93114.03
2019-04-30T18:15:34.663Z,93078.98
2019-04-30T18:18:09.656Z,93020.22
2019-04-30T18:20:45.184Z,92992.87
2019-04-30T18:23:25.435Z,93009.73
2019-04-30T18:26:02.574Z,93028.45
2019-04-30T18:28:32.367Z,93044.17
2019-04-30T18:31:02.596Z,93048.12
2019-04-30T18:33:32.893Z,93028.75
2019-04-30T18:36:03.387Z,93042.42
2019-04-30T18:38:33.635Z,93006.61
2019-04-30T18:41:03.516Z,93003.55
2019-04-30T18:43:34.747Z,92601.20
2019-04-30T18:46:04.643Z,92988.17
2019-04-30T18:48:35.089Z,92978.09
2019-04-30T18:51:18.911Z,92971.36
2019-04-30T18:53:40.818Z,92982.98
2019-04-30T18:56:14.679Z,92985.09
2019-04-30T18:58:48.645Z,93012.95
2019-04-30T19:01:18.769Z,93019.71
2019-04-30T19:03:49.228Z,93199.52
2019-04-30T19:06:31.386Z,93233.49
2019-04-30T19:09:19.699Z,93198.32
2019-04-30T19:12:06.249Z,93172.64
2019-04-30T19:14:40.337Z,93150.34
2019-04-30T19:17:30.556Z,93115.38
2019-04-30T19:20:18.891Z,93079.58
2019-04-30T19:22:59.834Z,93050.31
2019-04-30T19:25:30.275Z,93035.27
2019-04-30T19:28:11.643Z,93041.20
2019-04-30T19:30:33.633Z,93034.34
2019-04-30T19:33:03.915Z,93009.15
2019-04-30T19:35:34.774Z,93033.19
2019-04-30T19:38:14.148Z,93029.48
2019-04-30T19:40:44.634Z,92956.20
2019-04-30T19:43:14.514Z,92927.97
2019-04-30T19:45:45.066Z,92953.73
2019-04-30T19:48:16.150Z,92987.06
2019-04-30T19:50:46.216Z,93004.58
2019-04-30T19:53:16.170Z,92902.09
2019-04-30T19:55:49.102Z,92856.19
2019-04-30T19:58:26.139Z,92887.99
2019-04-30T20:00:50.933Z,92847.50
2019-04-30T20:03:22.134Z,92776.69
2019-04-30T20:05:52.536Z,92792.61
2019-04-30T20:08:28.711Z,92735.98
2019-04-30T20:11:05.421Z,92717.69
2019-04-30T20:13:37.227Z,92703.05
2019-04-30T20:16:09.977Z,92685.83
2019-04-30T20:18:41.654Z,92691.68
2019-04-30T20:21:13.043Z,92675.53
2019-04-30T20:23:43.384Z,92718.85
2019-04-30T20:26:13.784Z,92723.14
2019-04-30T20:28:43.653Z,92769.34
2019-04-30T20:31:14.060Z,92966.45
2019-04-30T20:33:44.242Z,92981.16
2019-04-30T20:36:14.050Z,93065.98
2019-04-30T20:38:57.066Z,93103.34
2019-04-30T20:41:33.172Z,93133.32
2019-04-30T20:44:06.654Z,93105.34
2019-04-30T20:46:39.295Z,93138.84
2019-04-30T20:49:10.348Z,93096.96
2019-04-30T20:51:52.476Z,93082.45
2019-04-30T20:54:11.648Z,93039.42
2019-04-30T20:56:48.325Z,93013.22
2019-04-30T21:02:07.517Z,92993.66
2019-04-30T21:04:38.336Z,92958.46
2019-04-30T21:07:31.767Z,92924.49
2019-04-30T21:10:01.470Z,92172.25
2019-04-30T21:12:31.454Z,92898.06
2019-04-30T21:15:01.229Z,92881.95
2019-04-30T21:17:31.498Z,92851.34
2019-04-30T21:20:01.402Z,92830.58
2019-04-30T21:22:31.210Z,92814.11
2019-04-30T21:25:00.971Z,92791.75
2019-04-30T21:27:31.615Z,92759.90
2019-04-30T21:30:01.507Z,92718.24
2019-04-30T21:32:51.289Z,92699.34
2019-04-30T21:35:25.509Z,92618.80
2019-04-30T21:37:58.994Z,92575.92
2019-04-30T21:40:29.604Z,92612.03
2019-04-30T21:43:00.031Z,92651.29
2019-04-30T21:45:31.524Z,92652.59
2019-04-30T21:48:01.670Z,92683.85
2019-04-30T21:50:31.464Z,92697.66
2019-04-30T21:53:02.842Z,92689.52
2019-04-30T21:55:33.973Z,92642.25
2019-04-30T21:58:03.802Z,92623.72
2019-04-30T22:00:35.188Z,92549.34
2019-04-30T22:03:06.171Z,92530.46
2019-04-30T22:05:36.026Z,92516.02
2019-04-30T22:08:05.806Z,92506.32
2019-04-30T22:10:35.872Z,92493.13
2019-04-30T22:13:05.637Z,92046.26
2019-04-30T22:15:35.419Z,92613.11
2019-04-30T22:18:05.168Z,92803.64
2019-04-30T22:20:34.922Z,92760.02
2019-04-30T22:23:04.716Z,92759.03
2019-04-30T22:25:34.839Z,92670.72
2019-04-30T22:28:04.592Z,92614.27
2019-04-30T22:30:34.398Z,92622.45
2019-04-30T22:33:04.140Z,92655.95
2019-04-30T22:35:50.792Z,92650.09
2019-04-30T22:38:39.073Z,92611.86
2019-04-30T22:41:09.066Z,92715.86
2019-04-30T22:43:38.793Z,92743.91
2019-04-30T22:46:10.122Z,92876.96
2019-04-30T22:48:39.922Z,92975.60
2019-04-30T22:51:09.659Z,92989.30
2019-04-30T22:53:39.461Z,93087.75
2019-04-30T22:56:09.279Z,93055.73
2019-04-30T22:58:39.160Z,93054.55
2019-04-30T23:01:28.711Z,92954.42
2019-04-30T23:04:00.058Z,92946.88
2019-04-30T23:06:29.797Z,92890.75
2019-04-30T23:08:59.618Z,92848.40
2019-04-30T23:11:29.354Z,92815.14
2019-04-30T23:13:59.141Z,92798.53
2019-04-30T23:16:28.943Z,92795.12
2019-04-30T23:18:58.720Z,92790.44
2019-04-30T23:21:28.500Z,92791.70
2019-04-30T23:23:58.340Z,92822.55
2019-04-30T23:26:28.080Z,92787.60
2019-04-30T23:28:57.859Z,92762.59
2019-04-30T23:31:27.666Z,92897.16
2019-04-30T23:33:57.433Z,92826.97
2019-04-30T23:36:27.200Z,92780.00
2019-04-30T23:38:56.998Z,92730.81
2019-04-30T23:41:26.740Z,92669.89
2019-04-30T23:43:56.545Z,92645.69
2019-04-30T23:46:26.338Z,92635.06
2019-04-30T23:48:56.120Z,92592.55
2019-04-30T23:51:25.898Z,92655.06
2019-04-30T23:53:55.801Z,92589.64
2019-04-30T23:56:25.574Z,92576.16
2019-04-30T23:58:55.348Z,92522.38
